Tuscaloosa Regional Airport
KTCL : rendu visible

Aérodrome :











RETROUVEZ-NOUS SUR...

 
LOGIN :

S'inscrire | Disclaimer

   EN    FR    IT 

 









Légende :    VFR   VFR Marginal   IFR   IFR Intensif   IFR Très Intensif
Visi : 
Plafond : 
>= 8 km
>= 3000ft
5 à 8 km
1000 à 3000 ft
1500m à 5 km
500 à 1000 ft
800 à 1500m
200 à 500 ft
< 800m
< 200 ft
Symboles :   Orages  Brouillard  Fortes neiges  Fortes précipitations  Vent > 20 kt






- Altitude de l'aérodrome : 170 ft
- Code IATA : TCL


KTCL - Tuscaloosa Regional

DERNIER METAR :
  • 210753Z AUTO 00000KT 10SM CLR 07/05 A3020 RMK AO2 SLP226 T00670050

METARs EXPIRÉS :
  • 210653Z AUTO 00000KT 10SM CLR 08/06 A3020 RMK AO2 SLP225 T00830056
  • 210553Z AUTO 00000KT 10SM CLR 08/06 A3021 RMK AO2 SLP228 T00780056 10122 20067 402110022 53002

TAF KTCL
Valide du 21 à 06h jusqu'au 22 à 06h UTC


210520Z 2106/2206 00000KT P6SM FEW150 BKN250
FM211500 17007KT P6SM SCT250
FM220000 16004KT P6SM FEW120 BKN250



MET'MAP, la Météo Aéronautique d'un coup d'oeil ! - Copyright ORBIFLY Décembre 2007 - Disclaimer

ORBIFLY MET'MAP TEAM :

Programmation & Développement : Alexandra Zaïnal
Conception & Développement : Baudouin d'Aumeries
Co-Programmation & Développement : Marc-Olivier Méhu
Soutien technique & logistique : Manuel Goepfert

Contact : metmap@orbifly.com




SOURCES & CREDITS :

   NOAA       Earth
Advisory